sensor_id;sensor_type;location;lat;lon;timestamp;temperature;humidity
20349;DHT22;10332;50.208;18.988;2023-05-13T00:00:18;14.00;1.00
20349;DHT22;10332;50.208;18.988;2023-05-13T00:03:06;14.00;1.00
20349;DHT22;10332;50.208;18.988;2023-05-13T00:05:34;14.00;1.00
20349;DHT22;10332;50.208;18.988;2023-05-13T00:08:01;14.00;1.00
20349;DHT22;10332;50.208;18.988;2023-05-13T00:10:34;14.00;1.00
20349;DHT22;10332;50.208;18.988;2023-05-13T00:13:01;14.10;1.00
20349;DHT22;10332;50.208;18.988;2023-05-13T00:15:29;14.10;1.00
20349;DHT22;10332;50.208;18.988;2023-05-13T00:17:57;14.10;1.00
20349;DHT22;10332;50.208;18.988;2023-05-13T00:20:24;14.10;1.00
20349;DHT22;10332;50.208;18.988;2023-05-13T00:22:51;14.10;1.00
20349;DHT22;10332;50.208;18.988;2023-05-13T00:25:19;14.10;1.00
20349;DHT22;10332;50.208;18.988;2023-05-13T00:27:46;14.20;1.00
20349;DHT22;10332;50.208;18.988;2023-05-13T00:30:14;14.20;1.00
20349;DHT22;10332;50.208;18.988;2023-05-13T00:32:42;14.20;1.00
20349;DHT22;10332;50.208;18.988;2023-05-13T00:35:12;14.20;1.00
20349;DHT22;10332;50.208;18.988;2023-05-13T00:37:40;14.20;1.00
20349;DHT22;10332;50.208;18.988;2023-05-13T00:40:29;14.20;1.00
20349;DHT22;10332;50.208;18.988;2023-05-13T00:42:57;14.10;99.90
20349;DHT22;10332;50.208;18.988;2023-05-13T00:45:24;14.10;99.90
20349;DHT22;10332;50.208;18.988;2023-05-13T00:47:52;14.00;99.90
20349;DHT22;10332;50.208;18.988;2023-05-13T00:50:20;14.00;99.90
20349;DHT22;10332;50.208;18.988;2023-05-13T00:52:49;14.00;99.90
20349;DHT22;10332;50.208;18.988;2023-05-13T00:55:17;13.90;1.00
20349;DHT22;10332;50.208;18.988;2023-05-13T00:57:44;13.80;1.00
20349;DHT22;10332;50.208;18.988;2023-05-13T01:00:13;13.80;1.00
20349;DHT22;10332;50.208;18.988;2023-05-13T01:03:08;13.70;1.00
20349;DHT22;10332;50.208;18.988;2023-05-13T01:05:51;13.60;1.00
20349;DHT22;10332;50.208;18.988;2023-05-13T01:09:02;13.60;24.10
20349;DHT22;10332;50.208;18.988;2023-05-13T01:11:47;13.50;1.00
20349;DHT22;10332;50.208;18.988;2023-05-13T01:14:26;13.40;99.90
20349;DHT22;10332;50.208;18.988;2023-05-13T01:17:11;13.30;99.90
20349;DHT22;10332;50.208;18.988;2023-05-13T01:19:48;13.30;1.00
20349;DHT22;10332;50.208;18.988;2023-05-13T01:22:22;13.20;1.00
20349;DHT22;10332;50.208;18.988;2023-05-13T01:24:49;13.10;1.00
20349;DHT22;10332;50.208;18.988;2023-05-13T01:27:17;13.00;1.00
20349;DHT22;10332;50.208;18.988;2023-05-13T01:29:45;13.00;1.00
20349;DHT22;10332;50.208;18.988;2023-05-13T01:32:14;13.00;99.90
20349;DHT22;10332;50.208;18.988;2023-05-13T01:34:43;13.00;1.00
20349;DHT22;10332;50.208;18.988;2023-05-13T01:37:11;12.90;1.00
20349;DHT22;10332;50.208;18.988;2023-05-13T01:39:40;12.80;33.80
20349;DHT22;10332;50.208;18.988;2023-05-13T01:42:08;12.80;1.00
20349;DHT22;10332;50.208;18.988;2023-05-13T01:44:35;12.80;1.00
20349;DHT22;10332;50.208;18.988;2023-05-13T01:47:03;12.80;99.90
20349;DHT22;10332;50.208;18.988;2023-05-13T01:49:30;12.80;99.90
20349;DHT22;10332;50.208;18.988;2023-05-13T01:51:58;12.80;99.90
20349;DHT22;10332;50.208;18.988;2023-05-13T01:54:25;12.80;99.90
20349;DHT22;10332;50.208;18.988;2023-05-13T01:56:53;12.80;99.90
20349;DHT22;10332;50.208;18.988;2023-05-13T01:59:27;12.80;1.00
20349;DHT22;10332;50.208;18.988;2023-05-13T02:01:55;12.80;1.00
20349;DHT22;10332;50.208;18.988;2023-05-13T02:04:22;12.70;1.00
20349;DHT22;10332;50.208;18.988;2023-05-13T02:06:50;12.70;99.90
20349;DHT22;10332;50.208;18.988;2023-05-13T02:09:17;12.70;1.00
20349;DHT22;10332;50.208;18.988;2023-05-13T02:11:45;12.70;1.00
20349;DHT22;10332;50.208;18.988;2023-05-13T02:14:12;12.70;1.00
20349;DHT22;10332;50.208;18.988;2023-05-13T02:16:40;12.60;1.00
20349;DHT22;10332;50.208;18.988;2023-05-13T02:19:08;12.50;99.90
20349;DHT22;10332;50.208;18.988;2023-05-13T02:21:37;12.40;99.90
20349;DHT22;10332;50.208;18.988;2023-05-13T02:24:05;12.30;1.00
20349;DHT22;10332;50.208;18.988;2023-05-13T02:26:32;12.30;1.00
20349;DHT22;10332;50.208;18.988;2023-05-13T02:29:00;12.20;43.30
20349;DHT22;10332;50.208;18.988;2023-05-13T02:31:27;12.20;1.00
20349;DHT22;10332;50.208;18.988;2023-05-13T02:33:55;11.90;99.90
20349;DHT22;10332;50.208;18.988;2023-05-13T02:36:22;11.70;99.90
20349;DHT22;10332;50.208;18.988;2023-05-13T02:38:50;11.60;1.00
20349;DHT22;10332;50.208;18.988;2023-05-13T02:41:18;11.50;1.00
20349;DHT22;10332;50.208;18.988;2023-05-13T02:43:45;11.50;1.00
20349;DHT22;10332;50.208;18.988;2023-05-13T02:46:13;11.40;1.00
20349;DHT22;10332;50.208;18.988;2023-05-13T02:48:40;11.40;1.00
20349;DHT22;10332;50.208;18.988;2023-05-13T02:51:07;11.40;1.00
20349;DHT22;10332;50.208;18.988;2023-05-13T02:53:35;11.50;99.90
20349;DHT22;10332;50.208;18.988;2023-05-13T02:56:03;11.50;1.00
20349;DHT22;10332;50.208;18.988;2023-05-13T02:58:30;11.50;1.00
20349;DHT22;10332;50.208;18.988;2023-05-13T03:00:58;11.50;1.00
20349;DHT22;10332;50.208;18.988;2023-05-13T03:03:25;11.50;99.90
20349;DHT22;10332;50.208;18.988;2023-05-13T03:05:53;11.40;99.90
20349;DHT22;10332;50.208;18.988;2023-05-13T03:08:20;11.40;99.90
20349;DHT22;10332;50.208;18.988;2023-05-13T03:11:06;11.40;99.90
20349;DHT22;10332;50.208;18.988;2023-05-13T03:13:33;11.40;99.90
20349;DHT22;10332;50.208;18.988;2023-05-13T03:16:01;11.30;1.00
20349;DHT22;10332;50.208;18.988;2023-05-13T03:18:29;11.20;1.00
20349;DHT22;10332;50.208;18.988;2023-05-13T03:20:59;11.20;1.00
20349;DHT22;10332;50.208;18.988;2023-05-13T03:23:26;11.30;1.00
20349;DHT22;10332;50.208;18.988;2023-05-13T03:25:54;11.30;1.00
20349;DHT22;10332;50.208;18.988;2023-05-13T03:28:21;11.30;1.00
20349;DHT22;10332;50.208;18.988;2023-05-13T03:30:50;11.30;1.00
20349;DHT22;10332;50.208;18.988;2023-05-13T03:33:17;11.30;1.00
20349;DHT22;10332;50.208;18.988;2023-05-13T03:35:45;11.30;1.00
20349;DHT22;10332;50.208;18.988;2023-05-13T03:38:14;11.40;1.00
20349;DHT22;10332;50.208;18.988;2023-05-13T03:40:42;11.50;1.00
20349;DHT22;10332;50.208;18.988;2023-05-13T03:43:09;11.50;1.00
20349;DHT22;10332;50.208;18.988;2023-05-13T03:45:37;11.60;1.00
20349;DHT22;10332;50.208;18.988;2023-05-13T03:48:04;11.70;99.90
20349;DHT22;10332;50.208;18.988;2023-05-13T03:50:33;11.70;99.90
20349;DHT22;10332;50.208;18.988;2023-05-13T03:53:01;11.80;1.00
20349;DHT22;10332;50.208;18.988;2023-05-13T03:55:28;11.90;1.00
20349;DHT22;10332;50.208;18.988;2023-05-13T03:57:56;11.90;1.00
20349;DHT22;10332;50.208;18.988;2023-05-13T04:00:25;12.00;1.00
20349;DHT22;10332;50.208;18.988;2023-05-13T04:02:52;12.00;1.00
20349;DHT22;10332;50.208;18.988;2023-05-13T04:05:20;12.10;99.90
20349;DHT22;10332;50.208;18.988;2023-05-13T04:07:48;12.20;1.00
20349;DHT22;10332;50.208;18.988;2023-05-13T04:10:15;12.20;1.00
20349;DHT22;10332;50.208;18.988;2023-05-13T04:12:43;12.30;1.00
20349;DHT22;10332;50.208;18.988;2023-05-13T04:15:11;12.30;1.00
20349;DHT22;10332;50.208;18.988;2023-05-13T04:17:38;12.30;99.90
20349;DHT22;10332;50.208;18.988;2023-05-13T04:20:06;12.30;99.90
20349;DHT22;10332;50.208;18.988;2023-05-13T04:22:34;12.30;99.90
20349;DHT22;10332;50.208;18.988;2023-05-13T04:25:02;12.20;1.00
20349;DHT22;10332;50.208;18.988;2023-05-13T04:27:29;12.20;1.00
20349;DHT22;10332;50.208;18.988;2023-05-13T04:29:57;12.30;1.00
20349;DHT22;10332;50.208;18.988;2023-05-13T04:32:24;12.30;1.00
20349;DHT22;10332;50.208;18.988;2023-05-13T04:34:52;12.30;1.00
20349;DHT22;10332;50.208;18.988;2023-05-13T04:37:19;12.40;1.00
20349;DHT22;10332;50.208;18.988;2023-05-13T04:39:47;12.50;99.90
20349;DHT22;10332;50.208;18.988;2023-05-13T04:42:15;12.50;99.90
20349;DHT22;10332;50.208;18.988;2023-05-13T04:44:43;12.60;99.90
20349;DHT22;10332;50.208;18.988;2023-05-13T04:47:11;12.60;99.90
20349;DHT22;10332;50.208;18.988;2023-05-13T04:49:38;12.70;1.00
20349;DHT22;10332;50.208;18.988;2023-05-13T04:52:06;12.70;99.90
20349;DHT22;10332;50.208;18.988;2023-05-13T04:54:34;12.80;99.90
20349;DHT22;10332;50.208;18.988;2023-05-13T04:57:03;12.80;99.90
20349;DHT22;10332;50.208;18.988;2023-05-13T04:59:32;12.90;1.00
20349;DHT22;10332;50.208;18.988;2023-05-13T05:01:59;13.00;1.00
20349;DHT22;10332;50.208;18.988;2023-05-13T05:04:27;13.10;1.00
20349;DHT22;10332;50.208;18.988;2023-05-13T05:06:54;13.20;1.00
20349;DHT22;10332;50.208;18.988;2023-05-13T05:09:22;13.30;1.00
20349;DHT22;10332;50.208;18.988;2023-05-13T05:11:49;13.30;1.00
20349;DHT22;10332;50.208;18.988;2023-05-13T05:14:17;13.40;1.00
20349;DHT22;10332;50.208;18.988;2023-05-13T05:16:46;13.40;44.30
20349;DHT22;10332;50.208;18.988;2023-05-13T05:19:13;13.40;1.00
20349;DHT22;10332;50.208;18.988;2023-05-13T05:21:41;13.40;1.00
20349;DHT22;10332;50.208;18.988;2023-05-13T05:24:08;13.30;1.00
20349;DHT22;10332;50.208;18.988;2023-05-13T05:26:36;13.30;1.00
20349;DHT22;10332;50.208;18.988;2023-05-13T05:29:03;13.20;1.00
20349;DHT22;10332;50.208;18.988;2023-05-13T05:31:30;13.20;1.00
20349;DHT22;10332;50.208;18.988;2023-05-13T05:33:58;13.20;1.00
20349;DHT22;10332;50.208;18.988;2023-05-13T05:36:30;13.20;1.00
20349;DHT22;10332;50.208;18.988;2023-05-13T05:38:58;13.20;1.00
20349;DHT22;10332;50.208;18.988;2023-05-13T05:41:25;13.40;1.00
20349;DHT22;10332;50.208;18.988;2023-05-13T05:43:53;13.50;1.00
20349;DHT22;10332;50.208;18.988;2023-05-13T05:46:20;13.70;1.00
20349;DHT22;10332;50.208;18.988;2023-05-13T05:48:49;13.90;37.30
20349;DHT22;10332;50.208;18.988;2023-05-13T05:51:16;14.10;1.00
20349;DHT22;10332;50.208;18.988;2023-05-13T05:53:44;14.20;1.00
20349;DHT22;10332;50.208;18.988;2023-05-13T05:56:11;14.30;1.00
20349;DHT22;10332;50.208;18.988;2023-05-13T05:58:39;14.50;1.00
20349;DHT22;10332;50.208;18.988;2023-05-13T06:01:06;14.50;1.00
20349;DHT22;10332;50.208;18.988;2023-05-13T06:03:34;14.60;1.00
20349;DHT22;10332;50.208;18.988;2023-05-13T06:06:02;14.60;1.00
20349;DHT22;10332;50.208;18.988;2023-05-13T06:08:30;14.70;1.00
20349;DHT22;10332;50.208;18.988;2023-05-13T06:10:57;14.80;1.00
20349;DHT22;10332;50.208;18.988;2023-05-13T06:13:25;14.90;99.90
20349;DHT22;10332;50.208;18.988;2023-05-13T06:15:52;14.90;99.90
20349;DHT22;10332;50.208;18.988;2023-05-13T06:18:20;15.00;99.90
20349;DHT22;10332;50.208;18.988;2023-05-13T06:20:47;15.00;88.80
20349;DHT22;10332;50.208;18.988;2023-05-13T06:23:15;15.10;11.30
20349;DHT22;10332;50.208;18.988;2023-05-13T06:25:42;15.20;32.80
20349;DHT22;10332;50.208;18.988;2023-05-13T06:28:10;15.30;22.10
20349;DHT22;10332;50.208;18.988;2023-05-13T06:30:38;15.50;1.00
20349;DHT22;10332;50.208;18.988;2023-05-13T06:33:06;15.70;1.00
20349;DHT22;10332;50.208;18.988;2023-05-13T06:35:36;15.90;1.00
20349;DHT22;10332;50.208;18.988;2023-05-13T06:38:07;16.10;1.00
20349;DHT22;10332;50.208;18.988;2023-05-13T06:40:34;16.30;1.00
20349;DHT22;10332;50.208;18.988;2023-05-13T06:43:02;16.40;1.00
20349;DHT22;10332;50.208;18.988;2023-05-13T06:45:29;16.40;1.00
20349;DHT22;10332;50.208;18.988;2023-05-13T06:47:59;16.40;1.00
20349;DHT22;10332;50.208;18.988;2023-05-13T06:50:26;16.40;1.00
20349;DHT22;10332;50.208;18.988;2023-05-13T06:52:54;16.40;1.00
20349;DHT22;10332;50.208;18.988;2023-05-13T06:55:21;16.40;1.00
20349;DHT22;10332;50.208;18.988;2023-05-13T06:57:49;16.40;1.00
20349;DHT22;10332;50.208;18.988;2023-05-13T07:00:16;16.40;1.00
20349;DHT22;10332;50.208;18.988;2023-05-13T07:02:45;16.50;1.00
20349;DHT22;10332;50.208;18.988;2023-05-13T07:05:12;16.50;1.00
20349;DHT22;10332;50.208;18.988;2023-05-13T07:07:40;16.60;1.00
20349;DHT22;10332;50.208;18.988;2023-05-13T07:10:09;16.60;1.00
20349;DHT22;10332;50.208;18.988;2023-05-13T07:12:38;16.60;1.00
20349;DHT22;10332;50.208;18.988;2023-05-13T07:15:05;16.60;1.00
20349;DHT22;10332;50.208;18.988;2023-05-13T07:17:33;16.60;1.00
20349;DHT22;10332;50.208;18.988;2023-05-13T07:20:01;16.70;1.00
20349;DHT22;10332;50.208;18.988;2023-05-13T07:22:29;16.70;1.00
20349;DHT22;10332;50.208;18.988;2023-05-13T07:24:57;16.70;1.00
20349;DHT22;10332;50.208;18.988;2023-05-13T07:27:25;16.80;1.00
20349;DHT22;10332;50.208;18.988;2023-05-13T07:29:53;16.90;1.00
20349;DHT22;10332;50.208;18.988;2023-05-13T07:32:20;16.90;1.00
20349;DHT22;10332;50.208;18.988;2023-05-13T07:34:48;17.00;1.00
20349;DHT22;10332;50.208;18.988;2023-05-13T07:37:15;17.10;1.00
20349;DHT22;10332;50.208;18.988;2023-05-13T07:39:43;17.10;1.00
20349;DHT22;10332;50.208;18.988;2023-05-13T07:42:11;17.20;1.00
20349;DHT22;10332;50.208;18.988;2023-05-13T07:44:38;17.40;1.00
20349;DHT22;10332;50.208;18.988;2023-05-13T07:47:06;17.60;1.00
20349;DHT22;10332;50.208;18.988;2023-05-13T07:49:33;17.90;99.90
20349;DHT22;10332;50.208;18.988;2023-05-13T07:52:01;18.00;99.90
20349;DHT22;10332;50.208;18.988;2023-05-13T07:54:28;18.30;99.90
20349;DHT22;10332;50.208;18.988;2023-05-13T07:56:56;18.40;99.90
20349;DHT22;10332;50.208;18.988;2023-05-13T07:59:23;18.40;99.90
20349;DHT22;10332;50.208;18.988;2023-05-13T08:01:51;18.70;99.90
20349;DHT22;10332;50.208;18.988;2023-05-13T08:04:18;18.90;99.90
20349;DHT22;10332;50.208;18.988;2023-05-13T08:06:46;18.90;99.90
20349;DHT22;10332;50.208;18.988;2023-05-13T08:09:13;19.10;99.90
20349;DHT22;10332;50.208;18.988;2023-05-13T08:11:41;19.10;99.90
20349;DHT22;10332;50.208;18.988;2023-05-13T08:14:09;19.20;99.90
20349;DHT22;10332;50.208;18.988;2023-05-13T08:16:37;19.30;99.90
20349;DHT22;10332;50.208;18.988;2023-05-13T08:19:04;19.60;99.90
20349;DHT22;10332;50.208;18.988;2023-05-13T08:21:32;19.80;99.90
20349;DHT22;10332;50.208;18.988;2023-05-13T08:23:59;19.90;99.90
20349;DHT22;10332;50.208;18.988;2023-05-13T08:26:27;20.10;99.90
20349;DHT22;10332;50.208;18.988;2023-05-13T08:28:54;20.20;99.90
20349;DHT22;10332;50.208;18.988;2023-05-13T08:31:23;20.40;99.90
20349;DHT22;10332;50.208;18.988;2023-05-13T08:33:51;20.50;99.90
20349;DHT22;10332;50.208;18.988;2023-05-13T08:36:20;20.30;99.90
20349;DHT22;10332;50.208;18.988;2023-05-13T08:38:51;20.20;99.90
20349;DHT22;10332;50.208;18.988;2023-05-13T08:41:19;20.20;99.90
20349;DHT22;10332;50.208;18.988;2023-05-13T08:43:49;20.10;99.90
20349;DHT22;10332;50.208;18.988;2023-05-13T08:46:22;20.00;99.90
20349;DHT22;10332;50.208;18.988;2023-05-13T08:48:51;19.90;99.90
20349;DHT22;10332;50.208;18.988;2023-05-13T08:51:21;19.90;99.90
20349;DHT22;10332;50.208;18.988;2023-05-13T08:53:48;19.90;99.90
20349;DHT22;10332;50.208;18.988;2023-05-13T08:56:18;19.90;99.90
20349;DHT22;10332;50.208;18.988;2023-05-13T08:58:45;19.90;99.90
20349;DHT22;10332;50.208;18.988;2023-05-13T09:01:14;19.80;99.90
20349;DHT22;10332;50.208;18.988;2023-05-13T09:03:57;19.90;99.90
20349;DHT22;10332;50.208;18.988;2023-05-13T09:06:27;20.00;99.90
20349;DHT22;10332;50.208;18.988;2023-05-13T09:08:55;20.10;99.90
20349;DHT22;10332;50.208;18.988;2023-05-13T09:11:23;20.00;99.90
20349;DHT22;10332;50.208;18.988;2023-05-13T09:14:00;19.80;99.90
20349;DHT22;10332;50.208;18.988;2023-05-13T09:16:29;19.80;99.90
20349;DHT22;10332;50.208;18.988;2023-05-13T09:19:01;20.10;99.90
20349;DHT22;10332;50.208;18.988;2023-05-13T09:21:32;20.40;99.90
20349;DHT22;10332;50.208;18.988;2023-05-13T09:24:14;20.70;99.90
20349;DHT22;10332;50.208;18.988;2023-05-13T09:26:49;20.80;99.90
20349;DHT22;10332;50.208;18.988;2023-05-13T09:29:26;20.60;99.90
20349;DHT22;10332;50.208;18.988;2023-05-13T09:31:59;22.00;99.90
20349;DHT22;10332;50.208;18.988;2023-05-13T09:34:29;25.60;99.90
20349;DHT22;10332;50.208;18.988;2023-05-13T09:37:05;24.50;99.90
20349;DHT22;10332;50.208;18.988;2023-05-13T09:39:40;28.60;99.90
20349;DHT22;10332;50.208;18.988;2023-05-13T09:42:15;29.90;94.20
20349;DHT22;10332;50.208;18.988;2023-05-13T09:44:45;31.90;82.90
20349;DHT22;10332;50.208;18.988;2023-05-13T09:47:14;31.60;39.70
20349;DHT22;10332;50.208;18.988;2023-05-13T09:49:44;34.60;19.00
20349;DHT22;10332;50.208;18.988;2023-05-13T09:52:21;31.60;19.50
20349;DHT22;10332;50.208;18.988;2023-05-13T09:54:48;30.00;34.30
20349;DHT22;10332;50.208;18.988;2023-05-13T09:57:16;28.30;37.60
20349;DHT22;10332;50.208;18.988;2023-05-13T09:59:43;27.80;41.80
20349;DHT22;10332;50.208;18.988;2023-05-13T10:02:12;26.60;50.90
20349;DHT22;10332;50.208;18.988;2023-05-13T10:04:42;25.50;59.40
20349;DHT22;10332;50.208;18.988;2023-05-13T10:07:10;24.60;69.10
20349;DHT22;10332;50.208;18.988;2023-05-13T10:09:39;23.90;79.60
20349;DHT22;10332;50.208;18.988;2023-05-13T10:12:09;23.40;81.30
20349;DHT22;10332;50.208;18.988;2023-05-13T10:14:41;23.10;90.40
20349;DHT22;10332;50.208;18.988;2023-05-13T10:17:11;25.00;92.00
20349;DHT22;10332;50.208;18.988;2023-05-13T10:19:39;25.10;67.20
20349;DHT22;10332;50.208;18.988;2023-05-13T10:22:07;24.00;67.10
20349;DHT22;10332;50.208;18.988;2023-05-13T10:24:37;23.50;75.30
20349;DHT22;10332;50.208;18.988;2023-05-13T10:27:06;23.80;81.50
20349;DHT22;10332;50.208;18.988;2023-05-13T10:29:36;22.90;78.50
20349;DHT22;10332;50.208;18.988;2023-05-13T10:32:06;22.20;83.40
20349;DHT22;10332;50.208;18.988;2023-05-13T10:34:36;27.60;60.20
20349;DHT22;10332;50.208;18.988;2023-05-13T10:43:41;32.30;18.30
20349;DHT22;10332;50.208;18.988;2023-05-13T10:46:11;30.30;15.30
20349;DHT22;10332;50.208;18.988;2023-05-13T10:48:50;28.00;22.30
20349;DHT22;10332;50.208;18.988;2023-05-13T10:51:23;26.80;31.10
20349;DHT22;10332;50.208;18.988;2023-05-13T10:53:54;26.50;35.20
20349;DHT22;10332;50.208;18.988;2023-05-13T10:56:27;26.40;36.70
20349;DHT22;10332;50.208;18.988;2023-05-13T10:59:03;25.60;37.00
20349;DHT22;10332;50.208;18.988;2023-05-13T11:01:35;24.90;42.00
20349;DHT22;10332;50.208;18.988;2023-05-13T11:04:14;24.00;46.50
20349;DHT22;10332;50.208;18.988;2023-05-13T11:06:44;23.40;51.70
20349;DHT22;10332;50.208;18.988;2023-05-13T11:11:56;23.00;56.70
20349;DHT22;10332;50.208;18.988;2023-05-13T11:14:26;22.70;58.40
20349;DHT22;10332;50.208;18.988;2023-05-13T11:19:45;23.00;60.50
20349;DHT22;10332;50.208;18.988;2023-05-13T11:27:43;22.80;65.10
20349;DHT22;10332;50.208;18.988;2023-05-13T11:30:25;22.70;66.20
20349;DHT22;10332;50.208;18.988;2023-05-13T11:32:56;23.00;71.70
20349;DHT22;10332;50.208;18.988;2023-05-13T11:37:55;22.50;71.80
20349;DHT22;10332;50.208;18.988;2023-05-13T11:40:34;22.90;73.90
20349;DHT22;10332;50.208;18.988;2023-05-13T11:43:03;23.30;72.20
20349;DHT22;10332;50.208;18.988;2023-05-13T11:45:32;23.20;69.00
20349;DHT22;10332;50.208;18.988;2023-05-13T11:48:21;23.20;70.10
20349;DHT22;10332;50.208;18.988;2023-05-13T11:50:57;23.50;71.20
20349;DHT22;10332;50.208;18.988;2023-05-13T11:53:26;23.30;67.50
20349;DHT22;10332;50.208;18.988;2023-05-13T11:55:54;23.30;69.70
20349;DHT22;10332;50.208;18.988;2023-05-13T11:58:21;23.10;70.10
20349;DHT22;10332;50.208;18.988;2023-05-13T12:00:49;22.70;71.80
20349;DHT22;10332;50.208;18.988;2023-05-13T12:03:17;22.40;76.80
20349;DHT22;10332;50.208;18.988;2023-05-13T12:05:45;22.20;78.40
20349;DHT22;10332;50.208;18.988;2023-05-13T12:08:13;22.10;82.90
20349;DHT22;10332;50.208;18.988;2023-05-13T12:10:43;22.50;86.70
20349;DHT22;10332;50.208;18.988;2023-05-13T12:13:11;22.80;84.40
20349;DHT22;10332;50.208;18.988;2023-05-13T12:15:40;22.90;82.30
20349;DHT22;10332;50.208;18.988;2023-05-13T12:18:08;22.90;83.30
20349;DHT22;10332;50.208;18.988;2023-05-13T12:20:37;22.80;85.30
20349;DHT22;10332;50.208;18.988;2023-05-13T12:23:05;22.60;85.90
20349;DHT22;10332;50.208;18.988;2023-05-13T12:25:48;22.30;85.20
20349;DHT22;10332;50.208;18.988;2023-05-13T12:28:23;21.60;89.90
20349;DHT22;10332;50.208;18.988;2023-05-13T12:30:58;21.10;92.50
20349;DHT22;10332;50.208;18.988;2023-05-13T12:33:32;21.20;93.30
20349;DHT22;10332;50.208;18.988;2023-05-13T12:41:38;21.40;93.80
20349;DHT22;10332;50.208;18.988;2023-05-13T12:44:14;21.20;95.10
20349;DHT22;10332;50.208;18.988;2023-05-13T12:46:53;21.10;95.70
20349;DHT22;10332;50.208;18.988;2023-05-13T12:49:23;21.10;96.10
20349;DHT22;10332;50.208;18.988;2023-05-13T12:51:51;20.70;96.40
20349;DHT22;10332;50.208;18.988;2023-05-13T12:54:18;20.50;97.20
20349;DHT22;10332;50.208;18.988;2023-05-13T12:56:46;20.40;99.10
20349;DHT22;10332;50.208;18.988;2023-05-13T12:59:14;20.40;99.90
20349;DHT22;10332;50.208;18.988;2023-05-13T13:01:44;20.20;99.90
20349;DHT22;10332;50.208;18.988;2023-05-13T13:04:14;20.10;99.90
20349;DHT22;10332;50.208;18.988;2023-05-13T13:06:43;20.00;99.90
20349;DHT22;10332;50.208;18.988;2023-05-13T13:09:12;20.10;99.90
20349;DHT22;10332;50.208;18.988;2023-05-13T13:11:39;20.00;99.90
20349;DHT22;10332;50.208;18.988;2023-05-13T13:14:06;20.00;99.90
20349;DHT22;10332;50.208;18.988;2023-05-13T13:16:41;20.00;99.90
20349;DHT22;10332;50.208;18.988;2023-05-13T13:19:09;20.00;99.90
20349;DHT22;10332;50.208;18.988;2023-05-13T13:21:38;20.00;99.90
20349;DHT22;10332;50.208;18.988;2023-05-13T13:24:08;20.00;99.90
20349;DHT22;10332;50.208;18.988;2023-05-13T13:26:36;19.90;99.90
20349;DHT22;10332;50.208;18.988;2023-05-13T13:29:03;19.80;99.90
20349;DHT22;10332;50.208;18.988;2023-05-13T13:31:32;19.80;99.90
20349;DHT22;10332;50.208;18.988;2023-05-13T13:33:59;19.70;99.90
20349;DHT22;10332;50.208;18.988;2023-05-13T13:36:30;19.80;99.90
20349;DHT22;10332;50.208;18.988;2023-05-13T13:38:58;19.90;99.90
20349;DHT22;10332;50.208;18.988;2023-05-13T13:41:26;20.00;99.90
20349;DHT22;10332;50.208;18.988;2023-05-13T13:43:53;20.10;99.90
20349;DHT22;10332;50.208;18.988;2023-05-13T13:46:21;20.20;99.90
20349;DHT22;10332;50.208;18.988;2023-05-13T13:48:48;20.30;99.90
20349;DHT22;10332;50.208;18.988;2023-05-13T13:51:16;20.40;99.90
20349;DHT22;10332;50.208;18.988;2023-05-13T13:53:45;20.40;99.90
20349;DHT22;10332;50.208;18.988;2023-05-13T13:56:12;20.30;99.90
20349;DHT22;10332;50.208;18.988;2023-05-13T13:58:40;20.10;99.90
20349;DHT22;10332;50.208;18.988;2023-05-13T14:01:07;20.20;99.90
20349;DHT22;10332;50.208;18.988;2023-05-13T14:03:35;20.10;99.90
20349;DHT22;10332;50.208;18.988;2023-05-13T14:06:03;20.10;99.90
20349;DHT22;10332;50.208;18.988;2023-05-13T14:08:33;20.00;99.90
20349;DHT22;10332;50.208;18.988;2023-05-13T14:11:01;19.90;99.90
20349;DHT22;10332;50.208;18.988;2023-05-13T14:13:28;19.90;99.90
20349;DHT22;10332;50.208;18.988;2023-05-13T14:15:57;19.80;99.90
20349;DHT22;10332;50.208;18.988;2023-05-13T14:18:24;19.80;99.90
20349;DHT22;10332;50.208;18.988;2023-05-13T14:20:52;19.70;99.90
20349;DHT22;10332;50.208;18.988;2023-05-13T14:23:19;19.70;99.90
20349;DHT22;10332;50.208;18.988;2023-05-13T14:25:47;19.60;99.90
20349;DHT22;10332;50.208;18.988;2023-05-13T14:28:20;19.60;99.90
20349;DHT22;10332;50.208;18.988;2023-05-13T14:30:51;19.50;99.90
20349;DHT22;10332;50.208;18.988;2023-05-13T14:33:18;19.50;99.90
20349;DHT22;10332;50.208;18.988;2023-05-13T14:35:45;19.30;99.90
20349;DHT22;10332;50.208;18.988;2023-05-13T14:38:13;19.30;99.90
20349;DHT22;10332;50.208;18.988;2023-05-13T14:40:40;19.30;99.90
20349;DHT22;10332;50.208;18.988;2023-05-13T14:43:08;19.30;99.90
20349;DHT22;10332;50.208;18.988;2023-05-13T14:45:36;19.30;99.90
20349;DHT22;10332;50.208;18.988;2023-05-13T14:48:03;19.30;99.90
20349;DHT22;10332;50.208;18.988;2023-05-13T14:50:31;19.20;99.90
20349;DHT22;10332;50.208;18.988;2023-05-13T14:52:58;19.20;99.90
20349;DHT22;10332;50.208;18.988;2023-05-13T14:55:26;19.10;99.90
20349;DHT22;10332;50.208;18.988;2023-05-13T14:57:53;19.00;99.90
20349;DHT22;10332;50.208;18.988;2023-05-13T15:00:21;19.00;99.90
20349;DHT22;10332;50.208;18.988;2023-05-13T15:02:49;19.00;99.90
20349;DHT22;10332;50.208;18.988;2023-05-13T15:05:17;19.00;99.90
20349;DHT22;10332;50.208;18.988;2023-05-13T15:07:45;19.00;99.90
20349;DHT22;10332;50.208;18.988;2023-05-13T15:10:12;19.00;99.90
20349;DHT22;10332;50.208;18.988;2023-05-13T15:12:40;19.00;99.90
20349;DHT22;10332;50.208;18.988;2023-05-13T15:15:08;19.00;99.90
20349;DHT22;10332;50.208;18.988;2023-05-13T15:17:36;19.10;99.90
20349;DHT22;10332;50.208;18.988;2023-05-13T15:20:04;19.20;99.90
20349;DHT22;10332;50.208;18.988;2023-05-13T15:22:32;19.10;99.90
20349;DHT22;10332;50.208;18.988;2023-05-13T15:25:00;19.10;99.90
20349;DHT22;10332;50.208;18.988;2023-05-13T15:27:27;19.10;99.90
20349;DHT22;10332;50.208;18.988;2023-05-13T15:29:55;19.00;99.90
20349;DHT22;10332;50.208;18.988;2023-05-13T15:32:22;18.90;99.90
20349;DHT22;10332;50.208;18.988;2023-05-13T15:34:50;18.90;99.90
20349;DHT22;10332;50.208;18.988;2023-05-13T15:37:17;18.90;99.90
20349;DHT22;10332;50.208;18.988;2023-05-13T15:39:45;18.90;99.90
20349;DHT22;10332;50.208;18.988;2023-05-13T15:42:12;19.00;99.90
20349;DHT22;10332;50.208;18.988;2023-05-13T15:44:40;19.00;99.90
20349;DHT22;10332;50.208;18.988;2023-05-13T15:47:14;18.80;99.90
20349;DHT22;10332;50.208;18.988;2023-05-13T15:49:42;18.80;99.90
20349;DHT22;10332;50.208;18.988;2023-05-13T15:52:09;18.80;99.90
20349;DHT22;10332;50.208;18.988;2023-05-13T15:54:37;18.70;99.90
20349;DHT22;10332;50.208;18.988;2023-05-13T15:57:04;18.70;99.90
20349;DHT22;10332;50.208;18.988;2023-05-13T15:59:32;18.70;99.90